createdAt,value
2019-03-10T00:01:54.071Z,5.10
2019-03-10T00:04:24.402Z,5.10
2019-03-10T00:06:54.678Z,5.10
2019-03-10T00:09:25.050Z,5.10
2019-03-10T00:11:55.378Z,5.10
2019-03-10T00:14:25.702Z,5.10
2019-03-10T00:16:56.016Z,5.10
2019-03-10T00:19:26.346Z,5.10
2019-03-10T00:21:56.874Z,5.10
2019-03-10T00:24:27.200Z,5.10
2019-03-10T00:26:57.554Z,5.10
2019-03-10T00:29:27.739Z,5.10
2019-03-10T00:31:57.997Z,5.10
2019-03-10T00:34:28.385Z,5.10
2019-03-10T00:36:58.712Z,5.10
2019-03-10T00:39:48.497Z,5.10
2019-03-10T00:42:54.756Z,5.10
2019-03-10T00:45:47.610Z,5.10
2019-03-10T00:48:29.404Z,5.10
2019-03-10T00:51:11.502Z,5.10
2019-03-10T00:53:42.033Z,5.10
2019-03-10T00:56:12.464Z,5.10
2019-03-10T00:58:42.780Z,5.10
2019-03-10T01:01:13.082Z,5.10
2019-03-10T01:03:43.429Z,5.10
2019-03-10T01:06:13.774Z,5.10
2019-03-10T01:08:44.078Z,5.10
2019-03-10T01:11:14.815Z,5.10
2019-03-10T01:13:45.134Z,5.10
2019-03-10T01:16:16.178Z,5.10
2019-03-10T01:18:47.524Z,5.10
2019-03-10T01:21:19.076Z,5.10
2019-03-10T01:23:49.401Z,5.10
2019-03-10T01:26:19.544Z,5.10
2019-03-10T01:28:49.742Z,5.00
2019-03-10T01:31:39.527Z,5.00
2019-03-10T01:34:36.879Z,5.00
2019-03-10T01:37:07.155Z,5.00
2019-03-10T01:39:37.289Z,5.00
2019-03-10T01:42:07.750Z,5.00
2019-03-10T01:44:38.077Z,5.00
2019-03-10T01:47:08.397Z,5.00
2019-03-10T01:49:38.727Z,5.00
2019-03-10T01:52:08.814Z,5.00
2019-03-10T01:54:39.266Z,5.00
2019-03-10T01:57:09.693Z,5.00
2019-03-10T01:59:40.021Z,5.00
2019-03-10T02:02:10.344Z,5.00
2019-03-10T02:04:40.664Z,4.90
2019-03-10T02:07:10.992Z,4.90
2019-03-10T02:09:41.313Z,5.00
2019-03-10T02:12:11.638Z,5.00
2019-03-10T02:14:41.964Z,5.00
2019-03-10T02:17:12.287Z,4.90
2019-03-10T02:19:42.611Z,4.90
2019-03-10T02:22:12.916Z,4.90
2019-03-10T02:24:43.155Z,4.90
2019-03-10T02:27:13.479Z,4.90
2019-03-10T02:29:43.802Z,4.90
2019-03-10T02:32:14.129Z,4.90
2019-03-10T02:34:44.349Z,4.90
2019-03-10T02:37:14.674Z,4.90
2019-03-10T02:39:45.611Z,4.90
2019-03-10T02:42:15.936Z,4.90
2019-03-10T02:44:46.266Z,4.90
2019-03-10T02:47:16.588Z,4.90
2019-03-10T02:49:46.910Z,4.90
2019-03-10T02:52:17.337Z,4.90
2019-03-10T02:54:47.444Z,4.90
2019-03-10T02:57:17.776Z,4.90
2019-03-10T02:59:48.100Z,4.90
2019-03-10T03:02:18.430Z,4.90
2019-03-10T03:04:48.680Z,4.90
2019-03-10T03:07:19.099Z,4.80
2019-03-10T03:09:49.190Z,4.80
2019-03-10T03:12:19.641Z,4.80
2019-03-10T03:14:49.948Z,4.90
2019-03-10T03:17:20.063Z,4.80
2019-03-10T03:19:50.527Z,4.80
2019-03-10T03:22:20.822Z,4.80
2019-03-10T03:24:51.142Z,4.80
2019-03-10T03:27:21.463Z,4.80
2019-03-10T03:29:51.785Z,4.80
2019-03-10T03:32:22.115Z,4.80
2019-03-10T03:34:52.192Z,4.80
2019-03-10T03:37:22.560Z,4.80
2019-03-10T03:39:52.890Z,4.80
2019-03-10T03:42:23.211Z,4.70
2019-03-10T03:44:53.541Z,4.70
2019-03-10T03:47:23.861Z,4.70
2019-03-10T03:49:54.172Z,4.70
2019-03-10T03:52:24.292Z,4.70
2019-03-10T03:54:54.620Z,4.70
2019-03-10T03:57:24.939Z,4.60
2019-03-10T03:59:55.261Z,4.70
2019-03-10T04:02:27.225Z,4.60
2019-03-10T04:04:57.562Z,4.70
2019-03-10T04:07:27.872Z,4.60
2019-03-10T04:09:58.201Z,4.60
2019-03-10T04:12:28.461Z,4.60
2019-03-10T04:14:58.846Z,4.60
2019-03-10T04:17:29.080Z,4.60
2019-03-10T04:19:59.291Z,4.60
2019-03-10T04:22:29.611Z,4.60
2019-03-10T04:24:59.936Z,4.60
2019-03-10T04:27:30.266Z,4.50
2019-03-10T04:30:00.585Z,4.50
2019-03-10T04:32:30.774Z,4.50
2019-03-10T04:35:01.235Z,4.50
2019-03-10T04:37:31.555Z,4.50
2019-03-10T04:40:01.880Z,4.50
2019-03-10T04:42:32.203Z,4.50
2019-03-10T04:45:02.339Z,4.50
2019-03-10T04:47:32.539Z,4.50
2019-03-10T04:50:02.727Z,4.50
2019-03-10T04:52:32.911Z,4.50
2019-03-10T04:55:10.793Z,4.40
2019-03-10T04:57:42.647Z,4.40
2019-03-10T05:00:13.387Z,4.40
2019-03-10T05:02:44.934Z,4.40
2019-03-10T05:05:15.367Z,4.40
2019-03-10T05:07:45.911Z,4.40
2019-03-10T05:10:16.226Z,4.40
2019-03-10T05:12:46.547Z,4.40
2019-03-10T05:15:16.866Z,4.40
2019-03-10T05:17:47.081Z,4.40
2019-03-10T05:20:17.306Z,4.30
2019-03-10T05:22:47.837Z,4.30
2019-03-10T05:25:21.128Z,4.30
2019-03-10T05:27:51.658Z,4.30
2019-03-10T05:30:21.980Z,4.30
2019-03-10T05:32:52.323Z,4.30
2019-03-10T05:35:22.662Z,4.30
2019-03-10T05:37:53.075Z,4.30
2019-03-10T05:40:23.380Z,4.30
2019-03-10T05:42:53.705Z,4.30
2019-03-10T05:45:26.690Z,4.30
2019-03-10T05:47:56.819Z,4.30
2019-03-10T05:50:26.902Z,4.30
2019-03-10T05:52:57.252Z,4.30
2019-03-10T05:55:27.577Z,4.30
2019-03-10T05:57:57.900Z,4.30
2019-03-10T06:00:28.224Z,4.20
2019-03-10T06:02:58.547Z,4.20
2019-03-10T06:05:28.873Z,4.30
2019-03-10T06:07:59.198Z,4.30
2019-03-10T06:10:29.522Z,4.20
2019-03-10T06:12:59.844Z,4.20
2019-03-10T06:15:29.980Z,4.20
2019-03-10T06:18:00.286Z,4.20
2019-03-10T06:20:30.613Z,4.20
2019-03-10T06:23:00.854Z,4.20
2019-03-10T06:25:31.263Z,4.20
2019-03-10T06:28:01.584Z,4.20
2019-03-10T06:30:31.907Z,4.20
2019-03-10T06:33:02.440Z,4.30
2019-03-10T06:35:32.896Z,4.30
2019-03-10T06:38:03.085Z,4.30
2019-03-10T06:40:33.311Z,4.30
2019-03-10T06:43:03.768Z,4.30
2019-03-10T06:45:34.059Z,4.30
2019-03-10T06:48:04.480Z,4.30
2019-03-10T06:50:38.497Z,4.30
2019-03-10T06:53:08.819Z,4.30
2019-03-10T06:55:39.142Z,4.30
2019-03-10T06:58:09.467Z,4.30
2019-03-10T07:00:39.792Z,4.30
2019-03-10T07:03:10.119Z,4.30
2019-03-10T07:05:40.438Z,4.30
2019-03-10T07:08:10.766Z,4.30
2019-03-10T07:10:40.923Z,4.30
2019-03-10T07:13:11.158Z,4.30
2019-03-10T07:15:41.527Z,4.30
2019-03-10T07:18:11.963Z,4.30
2019-03-10T07:20:42.379Z,4.30
2019-03-10T07:23:14.352Z,4.30
2019-03-10T07:25:44.667Z,4.40
2019-03-10T07:28:20.403Z,4.40
2019-03-10T07:30:58.006Z,4.40
2019-03-10T07:33:45.134Z,4.40
2019-03-10T07:36:29.178Z,4.40
2019-03-10T07:39:00.859Z,4.50
2019-03-10T07:41:46.011Z,4.50
2019-03-10T07:44:22.372Z,4.60
2019-03-10T07:47:00.171Z,4.50
2019-03-10T07:49:31.956Z,4.60
2019-03-10T07:52:20.132Z,4.60
2019-03-10T07:54:46.092Z,4.60
2019-03-10T07:57:29.835Z,4.60
2019-03-10T08:00:10.820Z,4.60
2019-03-10T08:02:48.503Z,4.70
2019-03-10T08:05:23.810Z,4.70
2019-03-10T08:08:07.993Z,4.70
2019-03-10T08:10:48.762Z,4.80
2019-03-10T08:13:20.463Z,4.80
2019-03-10T08:16:09.071Z,4.80
2019-03-10T08:18:52.665Z,4.90
2019-03-10T08:21:24.359Z,4.90
2019-03-10T08:24:08.098Z,4.90
2019-03-10T08:26:39.792Z,5.00
2019-03-10T08:29:20.627Z,5.00
2019-03-10T08:32:10.611Z,5.10
2019-03-10T08:34:45.301Z,5.20
2019-03-10T08:37:35.291Z,5.20
2019-03-10T08:40:16.281Z,5.20
2019-03-10T08:42:50.920Z,5.30
2019-03-10T08:45:23.093Z,5.40
2019-03-10T08:47:58.231Z,5.50
2019-03-10T08:50:30.132Z,5.60
2019-03-10T08:53:02.019Z,5.70
2019-03-10T08:55:50.804Z,5.80
2019-03-10T08:58:22.769Z,5.70
2019-03-10T09:01:13.367Z,5.80
2019-03-10T09:04:02.123Z,5.90
2019-03-10T09:06:46.582Z,5.90
2019-03-10T09:09:36.563Z,6.10
2019-03-10T09:12:20.606Z,6.10
2019-03-10T09:14:58.107Z,6.20
2019-03-10T09:17:45.249Z,6.30
2019-03-10T09:20:26.217Z,6.30
2019-03-10T09:23:01.021Z,6.40
2019-03-10T09:25:32.973Z,6.50
2019-03-10T09:28:04.708Z,6.50
2019-03-10T09:30:52.472Z,6.60
2019-03-10T09:33:36.521Z,6.60
2019-03-10T09:36:20.566Z,6.60
2019-03-10T09:38:55.807Z,6.60
2019-03-10T09:41:33.708Z,6.60
2019-03-10T09:44:14.269Z,6.60
2019-03-10T09:46:49.290Z,6.50
2019-03-10T09:49:30.484Z,6.40
2019-03-10T09:52:08.024Z,6.40
2019-03-10T09:54:40.032Z,6.50
2019-03-10T09:57:17.710Z,6.60
2019-03-10T09:59:49.609Z,6.60
2019-03-10T10:02:21.559Z,6.70
2019-03-10T10:05:05.747Z,6.80
2019-03-10T10:07:43.917Z,6.80
2019-03-10T10:10:18.974Z,6.90
2019-03-10T10:12:50.911Z,6.90
2019-03-10T10:15:34.957Z,6.90
2019-03-10T10:18:09.890Z,6.90
2019-03-10T10:20:41.853Z,6.90
2019-03-10T10:23:13.513Z,6.80
2019-03-10T10:25:57.656Z,6.70
2019-03-10T10:28:41.910Z,6.60
2019-03-10T10:31:14.073Z,6.60
2019-03-10T10:34:04.287Z,6.50
2019-03-10T10:36:52.404Z,6.40
2019-03-10T10:39:30.305Z,6.30
2019-03-10T10:42:07.977Z,6.30
2019-03-10T10:44:58.008Z,6.30
2019-03-10T10:47:41.419Z,6.30
2019-03-10T10:50:25.902Z,6.30
2019-03-10T10:52:57.846Z,6.30
2019-03-10T10:55:30.592Z,6.20
2019-03-10T10:58:05.289Z,6.20
2019-03-10T11:00:44.778Z,6.30
2019-03-10T11:03:16.950Z,6.30
2019-03-10T11:05:54.857Z,6.30
2019-03-10T11:08:29.683Z,6.40
2019-03-10T11:11:17.725Z,6.40
2019-03-10T11:13:52.658Z,6.40
2019-03-10T11:16:30.351Z,6.40
2019-03-10T11:19:02.316Z,6.40
2019-03-10T11:21:36.938Z,6.40
2019-03-10T11:24:21.286Z,6.50
2019-03-10T11:26:55.812Z,6.50
2019-03-10T11:29:39.653Z,6.50
2019-03-10T11:32:18.816Z,6.60
2019-03-10T11:34:59.665Z,6.70
2019-03-10T11:37:49.847Z,6.70
2019-03-10T11:40:24.674Z,6.80
2019-03-10T11:43:02.372Z,6.80
2019-03-10T11:45:49.289Z,6.80
2019-03-10T11:48:27.596Z,6.80
2019-03-10T11:51:15.946Z,6.70
2019-03-10T11:53:51.175Z,6.80
2019-03-10T11:56:23.349Z,6.80
2019-03-10T11:58:57.982Z,6.80
2019-03-10T12:01:46.532Z,6.90
2019-03-10T12:04:18.697Z,7.00
2019-03-10T12:06:59.646Z,7.10
2019-03-10T12:09:30.100Z,7.10
2019-03-10T12:12:00.420Z,7.10
2019-03-10T12:14:32.173Z,7.00
2019-03-10T12:17:02.573Z,7.00
2019-03-10T12:19:33.054Z,7.00
2019-03-10T12:22:03.206Z,7.00
2019-03-10T12:24:33.576Z,7.10
2019-03-10T12:27:03.681Z,7.10
2019-03-10T12:29:34.015Z,7.00
2019-03-10T12:32:04.338Z,7.00
2019-03-10T12:34:34.872Z,7.10
2019-03-10T12:37:05.485Z,7.10
2019-03-10T12:39:35.726Z,7.10
2019-03-10T12:42:05.845Z,7.20
2019-03-10T12:44:36.085Z,7.20
2019-03-10T12:47:06.177Z,7.10
2019-03-10T12:49:36.503Z,7.10
2019-03-10T12:52:06.610Z,7.10
2019-03-10T12:54:36.812Z,7.10
2019-03-10T12:57:07.006Z,7.10
2019-03-10T12:59:39.130Z,7.10
2019-03-10T13:02:09.748Z,7.00
2019-03-10T13:04:40.551Z,7.00
2019-03-10T13:07:10.959Z,7.00
2019-03-10T13:09:41.459Z,7.00
2019-03-10T13:12:11.676Z,7.00
2019-03-10T13:14:42.002Z,7.00
2019-03-10T13:17:12.221Z,7.00
2019-03-10T13:19:42.749Z,7.00
2019-03-10T13:22:13.260Z,7.00
2019-03-10T13:24:43.619Z,7.00
2019-03-10T13:27:14.949Z,7.00
2019-03-10T13:29:45.134Z,7.00
2019-03-10T13:32:15.598Z,7.00
2019-03-10T13:34:45.924Z,7.00
2019-03-10T13:37:16.186Z,6.90
2019-03-10T13:39:46.463Z,6.90
2019-03-10T13:42:19.617Z,6.90
2019-03-10T13:44:49.885Z,6.90
2019-03-10T13:47:20.140Z,6.90
2019-03-10T13:49:50.530Z,6.90
2019-03-10T13:52:20.859Z,6.90
2019-03-10T13:54:51.176Z,6.90
2019-03-10T13:57:21.502Z,6.90
2019-03-10T13:59:52.191Z,6.90
2019-03-10T14:02:22.762Z,6.90
2019-03-10T14:04:53.010Z,6.90
2019-03-10T14:07:23.411Z,6.90
2019-03-10T14:09:53.737Z,6.90
2019-03-10T14:12:23.928Z,6.90
2019-03-10T14:14:54.021Z,6.90
2019-03-10T14:17:24.501Z,6.90
2019-03-10T14:19:55.052Z,6.90
2019-03-10T14:22:25.586Z,6.90
2019-03-10T14:24:56.034Z,6.90
2019-03-10T14:27:26.411Z,6.90
2019-03-10T14:29:57.016Z,6.90
2019-03-10T14:32:27.378Z,6.90
2019-03-10T14:34:57.663Z,6.80
2019-03-10T14:37:27.915Z,6.90
2019-03-10T14:39:58.361Z,6.80
2019-03-10T14:42:28.972Z,6.80
2019-03-10T14:44:59.219Z,6.80
2019-03-10T14:47:29.821Z,6.90
2019-03-10T14:50:00.395Z,6.80
2019-03-10T14:52:31.022Z,6.80
2019-03-10T14:55:01.408Z,6.80
2019-03-10T14:57:31.734Z,6.80
2019-03-10T15:00:02.260Z,6.80
2019-03-10T15:02:32.559Z,6.80
2019-03-10T15:05:02.740Z,6.80
2019-03-10T15:07:33.030Z,6.80
2019-03-10T15:10:03.556Z,6.80
2019-03-10T15:12:34.090Z,6.80
2019-03-10T15:15:04.817Z,6.80
2019-03-10T15:17:35.146Z,6.80
2019-03-10T15:20:07.205Z,6.80
2019-03-10T15:22:37.837Z,6.80
2019-03-10T15:25:21.549Z,6.70
2019-03-10T15:27:52.027Z,6.70
2019-03-10T15:30:25.136Z,6.70
2019-03-10T15:32:55.729Z,6.70
2019-03-10T15:35:26.456Z,6.70
2019-03-10T15:37:56.807Z,6.70
2019-03-10T15:40:28.851Z,6.70
2019-03-10T15:42:59.172Z,6.70
2019-03-10T15:45:29.649Z,6.70
2019-03-10T15:48:00.125Z,6.70
2019-03-10T15:50:32.519Z,6.60
2019-03-10T15:53:03.034Z,6.70
2019-03-10T15:55:33.377Z,6.70
2019-03-10T15:58:04.175Z,6.60
2019-03-10T16:00:34.785Z,6.60
2019-03-10T16:03:05.446Z,6.60
2019-03-10T16:05:35.690Z,6.60
2019-03-10T16:08:06.096Z,6.60
2019-03-10T16:10:36.477Z,6.60
2019-03-10T16:13:07.048Z,6.60
2019-03-10T16:15:37.402Z,6.60
2019-03-10T16:18:07.704Z,6.60
2019-03-10T16:20:38.031Z,6.60
2019-03-10T16:23:08.654Z,6.60
2019-03-10T16:25:38.880Z,6.50
2019-03-10T16:28:09.612Z,6.50
2019-03-10T16:30:39.940Z,6.50
2019-03-10T16:33:10.261Z,6.50
2019-03-10T16:35:40.685Z,6.50
2019-03-10T16:38:10.949Z,6.50
2019-03-10T16:40:41.338Z,6.50
2019-03-10T16:43:11.583Z,6.50
2019-03-10T16:45:41.985Z,6.50
2019-03-10T16:48:12.303Z,6.50
2019-03-10T16:50:42.628Z,6.50
2019-03-10T16:53:12.951Z,6.40
2019-03-10T16:55:43.280Z,6.40
2019-03-10T16:58:13.526Z,6.40
2019-03-10T17:00:43.634Z,6.40
2019-03-10T17:03:14.042Z,6.30
2019-03-10T17:05:44.570Z,6.30
2019-03-10T17:08:14.898Z,6.30
2019-03-10T17:10:46.243Z,6.30
2019-03-10T17:13:16.565Z,6.30
2019-03-10T17:15:48.195Z,6.30
2019-03-10T17:18:18.446Z,6.30
2019-03-10T17:20:48.767Z,6.20
2019-03-10T17:23:19.092Z,6.30
2019-03-10T17:25:49.414Z,6.20
2019-03-10T17:28:19.637Z,6.20
2019-03-10T17:30:49.858Z,6.20
2019-03-10T17:33:20.331Z,6.20
2019-03-10T17:35:50.637Z,6.10
2019-03-10T17:38:20.946Z,6.10
2019-03-10T17:40:51.383Z,6.10
2019-03-10T17:43:21.682Z,6.10
2019-03-10T17:45:51.935Z,6.10
2019-03-10T17:48:22.034Z,6.10
2019-03-10T17:50:52.454Z,6.10
2019-03-10T17:53:22.703Z,6.10
2019-03-10T17:55:53.097Z,6.00
2019-03-10T17:58:23.422Z,6.00
2019-03-10T18:00:53.872Z,6.00
2019-03-10T18:03:24.065Z,6.00
2019-03-10T18:05:54.207Z,6.00
2019-03-10T18:08:24.746Z,5.90
2019-03-10T18:10:55.475Z,5.90
2019-03-10T18:13:27.519Z,5.90
2019-03-10T18:15:58.199Z,5.90
2019-03-10T18:18:28.616Z,5.90
2019-03-10T18:20:59.103Z,5.90
2019-03-10T18:23:29.449Z,5.90
2019-03-10T18:25:59.747Z,5.90
2019-03-10T18:28:30.116Z,5.90
2019-03-10T18:31:00.643Z,5.90
2019-03-10T18:33:30.845Z,5.90
2019-03-10T18:36:01.080Z,5.80
2019-03-10T18:38:31.675Z,5.80
2019-03-10T18:41:02.009Z,5.80
2019-03-10T18:43:32.330Z,5.80
2019-03-10T18:46:03.938Z,5.80
2019-03-10T18:48:34.097Z,5.80
2019-03-10T18:51:04.558Z,5.70
2019-03-10T18:53:35.184Z,5.80
2019-03-10T18:56:05.611Z,5.80
2019-03-10T18:58:35.904Z,5.70
2019-03-10T19:01:06.855Z,5.70
2019-03-10T19:03:37.170Z,5.70
2019-03-10T19:06:07.697Z,5.70
2019-03-10T19:08:37.845Z,5.70
2019-03-10T19:11:08.346Z,5.70
2019-03-10T19:13:38.974Z,5.70
2019-03-10T19:16:09.642Z,5.70
2019-03-10T19:18:39.828Z,5.70
2019-03-10T19:21:10.153Z,5.60
2019-03-10T19:23:40.481Z,5.60
2019-03-10T19:26:11.463Z,5.60
2019-03-10T19:28:41.944Z,5.60
2019-03-10T19:31:12.347Z,5.60
2019-03-10T19:33:42.697Z,5.60
2019-03-10T19:36:13.127Z,5.60
2019-03-10T19:38:43.657Z,5.60
2019-03-10T19:41:13.975Z,5.50
2019-03-10T19:43:44.364Z,5.50
2019-03-10T19:46:14.606Z,5.50
2019-03-10T19:48:46.483Z,5.50
2019-03-10T19:51:17.097Z,5.50
2019-03-10T19:53:48.776Z,5.50
2019-03-10T19:56:19.231Z,5.50
2019-03-10T19:58:49.336Z,5.40
2019-03-10T20:01:19.480Z,5.40
2019-03-10T20:03:49.858Z,5.40
2019-03-10T20:06:20.192Z,5.40
2019-03-10T20:08:50.629Z,5.40
2019-03-10T20:11:20.939Z,5.40
2019-03-10T20:13:51.666Z,5.40
2019-03-10T20:16:22.194Z,5.40
2019-03-10T20:18:52.516Z,5.40
2019-03-10T20:21:22.693Z,5.30
2019-03-10T20:23:52.745Z,5.30
2019-03-10T20:26:23.083Z,5.30
2019-03-10T20:28:53.226Z,5.30
2019-03-10T20:31:23.628Z,5.30
2019-03-10T20:33:54.169Z,5.30
2019-03-10T20:36:25.091Z,5.30
2019-03-10T20:38:55.316Z,5.30
2019-03-10T20:41:25.561Z,5.20
2019-03-10T20:43:55.859Z,5.20
2019-03-10T20:46:26.124Z,5.20
2019-03-10T20:48:56.718Z,5.20
2019-03-10T20:51:27.038Z,5.20
2019-03-10T20:53:57.360Z,5.20
2019-03-10T20:56:27.789Z,5.20
2019-03-10T20:58:58.204Z,5.10
2019-03-10T21:01:28.665Z,5.10
2019-03-10T21:03:58.965Z,5.10
2019-03-10T21:06:29.291Z,5.10
2019-03-10T21:09:01.043Z,5.10
2019-03-10T21:11:31.445Z,5.10
2019-03-10T21:14:01.692Z,5.10
2019-03-10T21:16:32.016Z,5.00
2019-03-10T21:19:02.343Z,5.00
2019-03-10T21:21:32.693Z,5.00
2019-03-10T21:24:02.888Z,5.00
2019-03-10T21:26:33.093Z,5.00
2019-03-10T21:29:03.779Z,5.00
2019-03-10T21:31:33.984Z,5.00
2019-03-10T21:34:04.185Z,5.00
2019-03-10T21:36:34.326Z,5.00
2019-03-10T21:39:05.853Z,5.00
2019-03-10T21:41:36.442Z,4.90
2019-03-10T21:44:06.911Z,4.90
2019-03-10T21:46:37.252Z,4.90
2019-03-10T21:49:07.624Z,4.90
2019-03-10T21:51:37.885Z,4.90
2019-03-10T21:54:08.204Z,4.90
2019-03-10T21:56:38.539Z,4.90
2019-03-10T21:59:10.003Z,4.80
2019-03-10T22:01:40.405Z,4.80
2019-03-10T22:04:10.731Z,4.80
2019-03-10T22:06:40.953Z,4.80
2019-03-10T22:09:11.481Z,4.80
2019-03-10T22:11:41.803Z,4.80
2019-03-10T22:14:12.135Z,4.80
2019-03-10T22:16:42.351Z,4.80
2019-03-10T22:19:22.313Z,4.80
2019-03-10T22:21:44.581Z,4.70
2019-03-10T22:24:15.059Z,4.70
2019-03-10T22:26:45.591Z,4.70
2019-03-10T22:29:15.919Z,4.70
2019-03-10T22:31:46.442Z,4.70
2019-03-10T22:34:16.768Z,4.70
2019-03-10T22:36:47.090Z,4.60
2019-03-10T22:39:17.425Z,4.60
2019-03-10T22:41:47.577Z,4.60
2019-03-10T22:44:17.649Z,4.60
2019-03-10T22:46:47.976Z,4.60
2019-03-10T22:49:18.299Z,4.60
2019-03-10T22:51:48.622Z,4.60
2019-03-10T22:54:18.952Z,4.60
2019-03-10T22:56:49.478Z,4.60
2019-03-10T22:59:19.800Z,4.60
2019-03-10T23:01:50.332Z,4.60
2019-03-10T23:04:20.659Z,4.60
2019-03-10T23:06:50.980Z,4.60
2019-03-10T23:09:21.066Z,4.60
2019-03-10T23:11:51.423Z,4.50
2019-03-10T23:14:21.746Z,4.50
2019-03-10T23:16:52.529Z,4.50
2019-03-10T23:19:23.212Z,4.50
2019-03-10T23:21:53.536Z,4.50
2019-03-10T23:24:23.876Z,4.50
2019-03-10T23:26:55.620Z,4.50
2019-03-10T23:29:25.949Z,4.50
2019-03-10T23:31:56.262Z,4.50
2019-03-10T23:34:26.594Z,4.50
2019-03-10T23:36:57.134Z,4.50
2019-03-10T23:39:27.542Z,4.50
2019-03-10T23:41:57.866Z,4.40
2019-03-10T23:44:28.191Z,4.40
2019-03-10T23:46:58.514Z,4.40
2019-03-10T23:49:28.838Z,4.40
2019-03-10T23:51:59.373Z,4.40
2019-03-10T23:54:29.692Z,4.30
2019-03-10T23:57:00.014Z,4.30
2019-03-10T23:59:30.350Z,4.30
